Time;durP1;ratioP1;P1;durP2;ratioP2;P2;SDS_P1;SDS_P2;PMS_P1;PMS_P2;Temp;Humidity;BMP_temperature;BMP_pressure;BME280_temperature;BME280_humidity;BME280_pressure;Samples;Min_cycle;Max_cycle;Signal;HPM_P1;HPM_P2
2023/07/10 00:00:17;;;;;;;5.80;5.28;;;;;;;-144.30;53.51;84333.06;5069051;28;20196;-48
2023/07/10 00:02:44;;;;;;;5.90;5.50;;;;;;;-144.30;53.57;84293.31;5066762;28;20586;-48
2023/07/10 00:05:14;;;;;;;9.05;5.80;;;;;;;-144.30;53.59;84331.06;5068812;28;20196;-48
2023/07/10 00:07:42;;;;;;;7.40;5.45;;;;;;;-144.30;53.84;84346.97;5068753;28;20219;-50
2023/07/10 00:10:11;;;;;;;10.68;6.03;;;;;;;-144.30;53.84;84362.84;5069005;28;20191;-49
2023/07/10 00:12:39;;;;;;;7.55;6.40;;;;;;;-144.30;53.79;84335.03;5068880;28;20747;-49
2023/07/10 00:15:24;;;;;;;5.95;5.25;;;;;;;-144.30;53.53;84333.06;5069001;28;20210;-49
2023/07/10 00:17:52;;;;;;;6.57;5.25;;;;;;;-144.30;53.86;84339.00;5066988;28;20210;-49
2023/07/10 00:20:22;;;;;;;5.82;5.30;;;;;;;-144.30;53.90;84293.31;5068662;28;20192;-50
2023/07/10 00:22:49;;;;;;;5.63;4.88;;;;;;;-144.30;53.47;84295.28;5068660;28;20198;-49
2023/07/10 00:25:19;;;;;;;5.38;4.93;;;;;;;-144.30;53.33;84366.84;5069207;28;20577;-48
2023/07/10 00:27:48;;;;;;;5.90;5.50;;;;;;;-144.30;53.21;84342.97;5066317;28;20212;-49
2023/07/10 00:30:17;;;;;;;5.75;5.35;;;;;;;-144.30;53.01;84259.50;5068806;28;20667;-50
2023/07/10 00:32:45;;;;;;;5.60;4.78;;;;;;;-144.30;52.35;84331.06;5066148;28;20287;-50
2023/07/10 00:35:16;;;;;;;12.80;5.18;;;;;;;-144.30;52.44;84348.94;5068509;28;20650;-51
2023/07/10 00:37:46;;;;;;;6.60;4.88;;;;;;;-144.30;52.18;84331.06;5065878;28;20216;-49
2023/07/10 00:40:20;;;;;;;5.13;4.20;;;;;;;-144.30;51.89;84275.41;5068696;28;20683;-49
2023/07/10 00:42:48;;;;;;;5.20;4.60;;;;;;;-144.30;51.46;84325.09;5066455;28;20211;-49
2023/07/10 00:45:16;;;;;;;4.75;4.35;;;;;;;-144.30;51.53;84323.13;5068601;28;20196;-48
2023/07/10 00:47:56;;;;;;;4.78;4.47;;;;;;;-144.30;51.09;84315.16;5065741;28;20269;-48
2023/07/10 00:50:30;;;;;;;5.10;4.70;;;;;;;-144.30;51.04;84329.06;5066091;28;20491;-48
2023/07/10 00:53:01;;;;;;;5.22;4.82;;;;;;;-144.30;51.01;84366.84;5068387;28;20203;-50
2023/07/10 00:55:32;;;;;;;4.68;4.38;;;;;;;-144.30;50.53;84321.13;5068171;28;20271;-48
2023/07/10 00:58:06;;;;;;;4.95;4.50;;;;;;;-144.30;50.33;84313.19;5068366;28;20196;-49
2023/07/10 01:00:34;;;;;;;4.63;4.22;;;;;;;-144.30;50.45;84305.22;5068104;28;20205;-49
2023/07/10 01:03:01;;;;;;;4.68;4.38;;;;;;;-144.30;50.11;84295.28;5068180;28;20188;-50
2023/07/10 01:05:31;;;;;;;5.15;4.65;;;;;;;-144.30;50.22;84245.59;5068405;28;20200;-50
2023/07/10 01:08:01;;;;;;;4.45;4.15;;;;;;;-144.30;50.06;84319.13;5067984;28;20586;-49
2023/07/10 01:10:29;;;;;;;4.38;4.10;;;;;;;-144.30;49.98;84337.03;5071910;28;20731;-50
2023/07/10 01:12:56;;;;;;;4.85;3.83;;;;;;;-144.30;49.83;84307.22;5072306;28;20199;-49
2023/07/10 01:15:23;;;;;;;6.03;4.78;;;;;;;-144.30;49.77;84325.09;5070098;28;20199;-48
2023/07/10 01:17:50;;;;;;;4.47;4.07;;;;;;;-144.30;49.75;84348.94;5071920;28;20200;-50
2023/07/10 01:20:33;;;;;;;4.55;4.18;;;;;;;-144.30;49.51;84267.47;5072164;28;20207;-50
2023/07/10 01:23:02;;;;;;;4.65;4.35;;;;;;;-144.30;49.50;84313.19;5072374;28;20640;-50
2023/07/10 01:25:33;;;;;;;5.10;4.60;;;;;;;-144.30;49.58;84335.03;5072297;28;20203;-49
2023/07/10 01:27:59;;;;;;;7.30;4.82;;;;;;;-144.30;49.63;84339.00;5071689;28;20226;-49
2023/07/10 01:30:34;;;;;;;6.50;4.40;;;;;;;-144.30;49.16;84311.19;5072097;28;20206;-49
2023/07/10 01:33:02;;;;;;;4.68;4.28;;;;;;;-144.30;49.41;84352.91;5071737;28;20202;-51
2023/07/10 01:35:33;;;;;;;6.05;4.07;;;;;;;-144.30;49.34;84325.09;5071735;28;20318;-50
2023/07/10 01:38:01;;;;;;;6.25;4.00;;;;;;;-144.30;49.41;84293.31;5071629;28;20251;-49
2023/07/10 01:40:36;;;;;;;5.78;3.97;;;;;;;-144.30;49.31;84325.09;5071776;28;20721;-51
2023/07/10 01:43:03;;;;;;;4.07;3.88;;;;;;;-144.30;49.17;84323.13;5071849;28;20505;-49
2023/07/10 01:45:42;;;;;;;4.93;3.80;;;;;;;-144.30;49.18;84307.22;5071306;28;20202;-50
2023/07/10 01:48:09;;;;;;;5.00;4.30;;;;;;;-144.30;49.07;84313.19;5069512;28;20272;-50
2023/07/10 01:50:37;;;;;;;4.15;3.92;;;;;;;-144.30;49.32;84325.09;5071220;28;20192;-49
2023/07/10 01:53:06;;;;;;;4.38;4.07;;;;;;;-144.30;49.01;84319.13;5068798;28;20192;-50
2023/07/10 01:55:38;;;;;;;4.18;3.88;;;;;;;-144.30;49.13;84362.84;5071185;28;20196;-51
2023/07/10 01:58:05;;;;;;;5.70;3.92;;;;;;;-144.30;49.26;84229.72;5069303;28;20195;-51
2023/07/10 02:00:32;;;;;;;5.30;4.88;;;;;;;-144.30;49.10;84356.91;5071419;28;20576;-50
2023/07/10 02:02:59;;;;;;;4.40;4.05;;;;;;;-144.30;48.95;84341.00;5071514;28;20192;-48
2023/07/10 02:05:26;;;;;;;3.92;3.72;;;;;;;-144.30;49.01;84342.97;5071470;28;20274;-50
2023/07/10 02:07:53;;;;;;;4.63;4.32;;;;;;;-144.30;49.10;84337.03;5071024;28;20253;-51
2023/07/10 02:10:21;;;;;;;6.55;4.03;;;;;;;-144.30;49.49;84346.97;5070947;28;20204;-51
2023/07/10 02:12:48;;;;;;;4.35;4.00;;;;;;;-144.30;49.05;84382.72;5070993;28;20210;-51
2023/07/10 02:15:15;;;;;;;4.53;4.07;;;;;;;-144.30;49.07;84358.88;5071695;28;20196;-50
2023/07/10 02:17:42;;;;;;;4.85;4.50;;;;;;;-144.30;49.02;84289.31;5070846;28;20283;-50
2023/07/10 02:20:10;;;;;;;4.57;4.18;;;;;;;-144.30;49.25;84319.13;5070689;28;20200;-51
2023/07/10 02:22:37;;;;;;;4.63;4.22;;;;;;;-144.30;48.86;84325.09;5070493;28;20196;-49
2023/07/10 02:25:04;;;;;;;4.95;4.53;;;;;;;-144.30;48.98;84249.59;5068314;28;20702;-50
2023/07/10 02:27:32;;;;;;;4.63;4.28;;;;;;;-144.30;48.95;84362.84;5070422;28;20196;-49
2023/07/10 02:29:59;;;;;;;4.90;4.40;;;;;;;-144.30;49.34;84319.13;5070396;28;20577;-50
2023/07/10 02:32:26;;;;;;;4.47;4.28;;;;;;;-144.30;49.09;84362.84;5070335;28;20218;-50
2023/07/10 02:34:53;;;;;;;5.20;4.82;;;;;;;-144.30;49.24;84331.06;5069884;28;20569;-50
2023/07/10 02:37:20;;;;;;;4.97;4.20;;;;;;;-144.30;49.38;84374.78;5070339;28;20206;-50
2023/07/10 02:39:47;;;;;;;4.55;4.25;;;;;;;-144.30;49.51;84366.84;5069975;28;20222;-50
2023/07/10 02:42:14;;;;;;;11.23;4.72;;;;;;;-144.30;49.60;84394.66;5070279;28;20729;-49
2023/07/10 02:44:43;;;;;;;5.68;4.97;;;;;;;-144.30;49.62;84354.91;5069866;28;20224;-51
2023/07/10 02:47:09;;;;;;;4.45;4.15;;;;;;;-144.30;49.72;84356.91;5070115;28;20714;-51
2023/07/10 02:49:36;;;;;;;4.82;4.43;;;;;;;-144.30;49.88;84384.72;5069903;28;20208;-51
2023/07/10 02:52:04;;;;;;;5.60;4.20;;;;;;;-144.30;50.19;84386.72;5069566;28;20198;-49
2023/07/10 02:54:31;;;;;;;4.88;4.50;;;;;;;-144.30;50.53;84400.63;5069995;28;20202;-50
2023/07/10 02:56:58;;;;;;;4.40;4.10;;;;;;;-144.30;50.64;84406.59;5069887;28;20279;-50
2023/07/10 02:59:27;;;;;;;4.03;3.80;;;;;;;-144.30;50.75;84410.56;5069942;28;20686;-48
2023/07/10 03:01:56;;;;;;;4.60;4.30;;;;;;;-144.30;50.67;84428.44;5069460;28;20257;-49
2023/07/10 03:04:23;;;;;;;4.60;4.20;;;;;;;-144.30;50.75;84434.41;5069575;28;20200;-48
2023/07/10 03:06:50;;;;;;;4.68;4.22;;;;;;;-144.30;51.11;84444.34;5069510;28;20199;-49
2023/07/10 03:09:17;;;;;;;4.50;4.10;;;;;;;-144.30;50.90;84444.34;5069729;28;20216;-49
2023/07/10 03:11:44;;;;;;;4.57;4.00;;;;;;;-144.30;50.79;84370.81;5066835;28;20199;-51
2023/07/10 03:14:11;;;;;;;5.00;4.28;;;;;;;-144.30;50.43;84396.66;5068081;28;20206;-50
2023/07/10 03:16:38;;;;;;;7.70;5.25;;;;;;;-144.30;50.54;84422.47;5069431;28;20214;-50
2023/07/10 03:19:06;;;;;;;5.75;5.25;;;;;;;-144.30;50.41;84416.50;5070578;28;20279;-50
2023/07/10 03:21:33;;;;;;;4.65;4.32;;;;;;;-144.30;50.19;84350.94;5062113;28;20235;-48
2023/07/10 03:24:02;;;;;;;5.22;4.70;;;;;;;-144.30;50.46;84990.91;5069251;28;20581;-50
2023/07/10 03:26:29;;;;;;;4.93;4.40;;;;;;;-144.30;50.55;84414.53;5068335;28;20188;-50
2023/07/10 03:29:06;;;;;;;5.53;4.88;;;;;;;-144.30;50.71;84394.66;5069086;28;20306;-49
2023/07/10 03:31:33;;;;;;;6.15;4.32;;;;;;;-144.30;51.06;84360.88;5066608;28;20657;-50
2023/07/10 03:34:00;;;;;;;7.97;4.68;;;;;;;-144.30;50.81;84410.56;5067150;28;20223;-50
2023/07/10 03:36:29;;;;;;;6.05;4.35;;;;;;;-144.30;50.36;84382.72;5068790;28;20614;-50
2023/07/10 03:38:56;;;;;;;4.53;4.22;;;;;;;-144.30;50.04;84342.97;5069125;28;20192;-51
2023/07/10 03:41:23;;;;;;;9.95;4.93;;;;;;;-144.30;49.64;84348.94;5067953;28;20196;-48
2023/07/10 03:43:50;;;;;;;6.32;4.55;;;;;;;-144.30;49.15;84333.06;5068511;28;20611;-50
2023/07/10 03:46:18;;;;;;;7.90;4.72;;;;;;;-144.30;48.81;84291.31;5067847;28;20187;-51
2023/07/10 03:48:45;;;;;;;6.32;4.30;;;;;;;-144.30;48.59;84303.25;5067575;28;20222;-51
2023/07/10 03:51:12;;;;;;;7.38;4.22;;;;;;;-144.30;47.93;84287.34;5067829;28;20188;-52
2023/07/10 03:53:40;;;;;;;9.88;4.30;;;;;;;-144.30;47.33;84237.66;5067588;28;20196;-51
2023/07/10 03:56:08;;;;;;;4.68;4.03;;;;;;;-144.30;47.00;84172.06;5068505;28;20281;-52
2023/07/10 03:58:39;;;;;;;6.75;4.55;;;;;;;-144.30;44.74;83985.28;5069364;28;20188;-50
2023/07/10 04:01:06;;;;;;;4.60;4.20;;;;;;;-144.30;41.72;83679.28;5069826;28;20651;-49
2023/07/10 04:03:34;;;;;;;4.80;4.40;;;;;;;-144.30;38.59;83345.50;5068451;28;20199;-49
2023/07/10 04:06:02;;;;;;;6.43;4.20;;;;;;;-144.30;35.86;83007.75;5063341;28;20204;-52
2023/07/10 04:08:30;;;;;;;8.02;4.35;;;;;;;-144.30;33.83;82763.41;5068897;28;20227;-49
2023/07/10 04:11:01;;;;;;;4.10;3.80;;;;;;;-144.30;32.58;82574.72;5066332;28;20196;-51
2023/07/10 04:13:28;;;;;;;8.07;5.57;;;;;;;-144.30;31.79;82334.38;5068520;28;20192;-51
2023/07/10 04:16:00;;;;;;;7.63;4.07;;;;;;;-144.30;30.60;82092.06;5068561;28;20287;-52
2023/07/10 04:18:29;;;;;;;6.47;4.65;;;;;;;-144.30;29.64;81923.25;5069037;28;20419;-51
2023/07/10 04:20:57;;;;;;;4.18;3.88;;;;;;;-144.30;29.15;81555.88;5061148;28;20644;-52
2023/07/10 04:23:24;;;;;;;4.80;4.25;;;;;;;-144.30;28.17;81543.97;5066995;28;20273;-52
2023/07/10 04:25:51;;;;;;;4.47;3.97;;;;;;;-144.30;27.69;81406.97;5068944;28;20635;-52
2023/07/10 04:28:20;;;;;;;5.07;4.55;;;;;;;-144.30;27.25;81202.44;5068658;28;20253;-49
2023/07/10 04:30:47;;;;;;;5.63;3.65;;;;;;;-144.30;26.72;81244.13;5066082;28;20278;-51
2023/07/10 04:33:14;;;;;;;6.00;4.10;;;;;;;-144.30;26.60;81212.38;5068490;28;20640;-50
2023/07/10 04:35:42;;;;;;;4.03;3.70;;;;;;;-144.30;26.41;81105.16;5068146;28;20229;-49
2023/07/10 04:38:09;;;;;;;5.75;4.22;;;;;;;-144.30;25.75;80757.72;5068606;28;20201;-50
2023/07/10 04:40:36;;;;;;;5.00;3.50;;;;;;;-144.30;25.43;80696.16;5069609;28;20282;-49
2023/07/10 04:43:04;;;;;;;7.38;4.20;;;;;;;-144.30;25.08;80485.75;5068395;28;20291;-49
2023/07/10 04:45:33;;;;;;;5.13;4.63;;;;;;;-144.30;25.02;80430.16;5068023;28;20295;-50
2023/07/10 04:48:00;;;;;;;5.22;3.63;;;;;;;-144.30;24.32;80174.09;5068519;28;20569;-50
2023/07/10 04:50:27;;;;;;;9.98;3.92;;;;;;;-144.30;24.66;80273.34;5068384;28;20225;-50
2023/07/10 04:52:53;;;;;;;33.53;5.05;;;;;;;-144.30;24.21;80140.34;5068198;28;20697;-49
2023/07/10 04:55:20;;;;;;;7.18;4.15;;;;;;;-144.30;24.38;80039.13;5067800;28;20585;-49
2023/07/10 04:57:47;;;;;;;6.25;3.80;;;;;;;-144.30;23.83;79997.44;5068335;28;20202;-51
2023/07/10 05:00:15;;;;;;;6.22;4.35;;;;;;;-144.30;24.05;79890.25;5068034;28;20203;-51
2023/07/10 05:02:43;;;;;;;10.07;4.20;;;;;;;-144.30;23.99;79816.81;5066611;28;20217;-52
2023/07/10 05:05:11;;;;;;;4.55;3.55;;;;;;;-144.30;23.47;79683.84;5068686;28;20671;-50
2023/07/10 05:07:37;;;;;;;6.78;3.72;;;;;;;-144.30;23.37;79521.13;5068379;28;20195;-50
2023/07/10 05:10:05;;;;;;;3.85;3.55;;;;;;;-144.30;23.58;79648.13;5067449;28;20214;-49
2023/07/10 05:12:32;;;;;;;4.20;3.80;;;;;;;-144.30;23.71;79806.91;5068518;28;20203;-49
2023/07/10 05:14:59;;;;;;;6.45;4.07;;;;;;;-144.30;23.56;79737.44;5068168;28;20195;-50
2023/07/10 05:17:26;;;;;;;4.05;3.67;;;;;;;-144.30;23.54;79667.97;5068481;28;20201;-52
2023/07/10 05:19:54;;;;;;;4.63;3.80;;;;;;;-144.30;23.25;79731.50;5066681;28;20290;-50
2023/07/10 05:22:21;;;;;;;7.22;3.58;;;;;;;-144.30;23.74;79783.09;5068862;28;20225;-51
2023/07/10 05:24:48;;;;;;;10.07;4.32;;;;;;;-144.30;23.50;79699.72;5065786;28;20209;-53
2023/07/10 05:27:15;;;;;;;7.90;3.90;;;;;;;-144.30;23.25;79606.44;5068354;28;20683;-50
2023/07/10 05:29:42;;;;;;;6.93;4.40;;;;;;;-144.30;22.82;79372.28;5068274;28;20662;-51
2023/07/10 05:32:09;;;;;;;5.50;4.47;;;;;;;-144.30;22.94;79546.91;5068593;28;20560;-50
2023/07/10 05:34:36;;;;;;;5.28;4.10;;;;;;;-144.30;22.97;79546.91;5067102;28;20203;-51
2023/07/10 05:37:05;;;;;;;9.50;5.10;;;;;;;-144.30;22.82;79648.13;5068438;28;20195;-52
2023/07/10 05:39:32;;;;;;;9.20;4.13;;;;;;;-144.30;23.44;79751.34;5068345;28;20192;-50
2023/07/10 05:42:00;;;;;;;6.85;3.85;;;;;;;-144.30;23.04;80064.94;5067109;28;20195;-50
2023/07/10 05:44:27;;;;;;;4.05;3.80;;;;;;;-144.30;23.04;79548.91;5068636;28;20207;-52
2023/07/10 05:46:55;;;;;;;5.15;4.53;;;;;;;-144.30;22.98;79719.56;5068303;28;20210;-51
2023/07/10 05:49:23;;;;;;;4.93;4.47;;;;;;;-144.30;23.26;79576.69;5068743;28;20227;-52
2023/07/10 05:51:51;;;;;;;4.20;3.78;;;;;;;-144.30;22.99;79675.91;5068282;28;20218;-54
2023/07/10 05:54:19;;;;;;;6.53;5.47;;;;;;;-144.30;23.52;79652.09;5068617;28;20672;-55
2023/07/10 05:56:47;;;;;;;4.32;3.75;;;;;;;-144.30;23.20;79600.50;5070176;28;20195;-53
2023/07/10 05:59:15;;;;;;;9.02;4.35;;;;;;;-144.30;23.16;79636.22;5071947;28;20198;-53
2023/07/10 06:01:42;;;;;;;6.93;4.20;;;;;;;-144.30;23.26;79386.16;5071440;28;20206;-52
2023/07/10 06:04:09;;;;;;;7.70;4.25;;;;;;;-144.30;23.32;79433.78;5071867;28;20198;-52
2023/07/10 06:06:36;;;;;;;7.38;4.00;;;;;;;-144.30;23.35;79485.41;5071625;28;20643;-56
2023/07/10 06:09:03;;;;;;;4.80;4.38;;;;;;;-144.30;23.37;79568.75;5071657;28;20679;-53
2023/07/10 06:11:32;;;;;;;6.72;4.53;;;;;;;-144.30;23.70;79636.22;5071934;28;20260;-56
2023/07/10 06:13:59;;;;;;;5.35;4.20;;;;;;;-144.30;23.12;79612.41;5071716;28;20288;-54
2023/07/10 06:16:25;;;;;;;10.00;4.57;;;;;;;-144.30;23.80;79945.84;5071728;28;20199;-55
2023/07/10 06:18:52;;;;;;;4.68;4.03;;;;;;;-144.30;23.85;80064.94;5071516;28;20221;-53
2023/07/10 06:21:19;;;;;;;9.43;4.28;;;;;;;-144.30;23.77;80060.97;5071541;28;20195;-53
2023/07/10 06:23:46;;;;;;;4.80;4.30;;;;;;;-144.30;23.59;80104.63;5071162;28;20286;-52
2023/07/10 06:26:13;;;;;;;8.02;5.82;;;;;;;-144.30;23.86;80088.75;5070990;28;20200;-54
2023/07/10 06:28:41;;;;;;;9.50;4.97;;;;;;;-144.30;24.29;80281.28;5070819;28;20202;-50
2023/07/10 06:31:11;;;;;;;4.88;4.57;;;;;;;-144.30;24.32;80382.53;5070940;28;20219;-50
2023/07/10 06:33:39;;;;;;;4.75;4.30;;;;;;;-144.30;24.37;80487.72;5070947;28;20685;-51
2023/07/10 06:36:07;;;;;;;4.47;4.18;;;;;;;-144.30;24.72;80569.13;5071157;28;20227;-51
2023/07/10 06:38:34;;;;;;;6.18;4.45;;;;;;;-144.30;24.66;80650.50;5070987;28;20210;-51
2023/07/10 06:41:01;;;;;;;5.10;4.18;;;;;;;-144.30;24.65;80668.38;5071249;28;20202;-50
2023/07/10 06:43:28;;;;;;;5.05;4.53;;;;;;;-144.30;25.18;80976.09;5071185;28;20654;-51
2023/07/10 06:45:57;;;;;;;4.47;4.15;;;;;;;-144.30;25.88;81160.75;5070756;28;20188;-51
2023/07/10 06:48:24;;;;;;;8.95;3.97;;;;;;;-144.30;26.00;81140.91;5071176;28;20205;-51
2023/07/10 06:50:53;;;;;;;6.20;3.90;;;;;;;-144.30;26.21;81184.56;5070789;28;20745;-51
2023/07/10 06:53:20;;;;;;;5.13;4.53;;;;;;;-144.30;26.02;81180.59;5070870;28;20207;-51
2023/07/10 06:55:53;;;;;;;4.40;4.00;;;;;;;-144.30;26.39;81287.81;5070764;28;20191;-51
2023/07/10 06:58:20;;;;;;;8.50;4.25;;;;;;;-144.30;26.21;81240.16;5061950;28;20203;-50
2023/07/10 07:00:48;;;;;;;9.90;5.15;;;;;;;-144.30;26.15;81121.03;5069463;28;20191;-51
2023/07/10 07:03:16;;;;;;;6.57;5.97;;;;;;;-144.30;26.08;81081.34;5071280;28;20203;-53
2023/07/10 07:05:44;;;;;;;4.53;4.10;;;;;;;-144.30;25.75;80984.03;5070992;28;20620;-50
2023/07/10 07:08:11;;;;;;;5.68;5.15;;;;;;;-144.30;25.90;81057.50;5070685;28;20219;-51
2023/07/10 07:10:41;;;;;;;9.15;4.55;;;;;;;-144.30;26.75;81277.91;5070489;28;20227;-52
2023/07/10 07:13:08;;;;;;;7.75;4.88;;;;;;;-144.30;26.43;81212.38;5070693;28;20213;-49
2023/07/10 07:15:35;;;;;;;17.30;6.03;;;;;;;-144.30;26.48;81148.84;5070629;28;20236;-51
2023/07/10 07:18:03;;;;;;;6.38;4.30;;;;;;;-144.30;26.12;81192.50;5070927;28;20191;-51
2023/07/10 07:20:32;;;;;;;7.95;7.15;;;;;;;-144.30;26.71;81309.66;5071030;28;20202;-50
2023/07/10 07:22:59;;;;;;;15.27;5.20;;;;;;;-144.30;26.33;81264.00;5070531;28;20195;-51
2023/07/10 07:25:25;;;;;;;6.82;4.28;;;;;;;-144.30;26.69;81136.91;5070539;28;20191;-51
2023/07/10 07:27:52;;;;;;;4.85;4.25;;;;;;;-144.30;26.07;81109.13;5070073;28;20195;-51
2023/07/10 07:30:19;;;;;;;6.07;4.35;;;;;;;-144.30;26.84;81347.38;5070722;28;20219;-49
2023/07/10 07:32:47;;;;;;;6.82;6.28;;;;;;;-144.30;26.59;81299.72;5070258;28;20286;-51
2023/07/10 07:35:14;;;;;;;8.63;4.13;;;;;;;-144.30;26.45;81234.22;5070264;28;20234;-50
2023/07/10 07:37:42;;;;;;;4.32;3.92;;;;;;;-144.30;26.26;81166.69;5070065;28;20582;-51
2023/07/10 07:40:10;;;;;;;6.43;4.05;;;;;;;-144.30;26.29;81061.47;5070335;28;20192;-50
2023/07/10 07:42:38;;;;;;;4.35;3.97;;;;;;;-144.30;26.30;81144.88;5069753;28;20198;-51
2023/07/10 07:45:06;;;;;;;4.30;4.00;;;;;;;-144.30;26.63;81303.72;5070513;28;20222;-50
2023/07/10 07:47:33;;;;;;;3.80;3.60;;;;;;;-144.30;26.83;81339.44;5070423;28;20675;-51
2023/07/10 07:50:00;;;;;;;4.30;3.90;;;;;;;-144.30;26.95;81267.97;5069911;28;20690;-50
2023/07/10 07:52:27;;;;;;;4.47;4.18;;;;;;;-144.30;26.64;81224.28;5070463;28;20221;-51
2023/07/10 07:54:55;;;;;;;4.97;3.90;;;;;;;-144.30;26.68;81264.00;5069753;28;20210;-51
2023/07/10 07:57:23;;;;;;;6.25;4.22;;;;;;;-144.30;26.31;81140.91;5069625;28;20205;-52
2023/07/10 07:59:50;;;;;;;6.55;4.30;;;;;;;-144.30;26.04;81115.09;5069935;28;20187;-48
2023/07/10 08:02:19;;;;;;;5.65;4.07;;;;;;;-144.30;26.42;81192.50;5070160;28;20560;-50
2023/07/10 08:04:46;;;;;;;5.07;4.55;;;;;;;-144.30;26.20;81085.31;5069533;28;20667;-50
2023/07/10 08:07:13;;;;;;;5.28;4.82;;;;;;;-144.30;25.63;80839.13;5070158;28;20589;-50
2023/07/10 08:09:40;;;;;;;4.85;4.18;;;;;;;-144.30;25.45;80833.16;5069502;28;20206;-48
2023/07/10 08:12:09;;;;;;;7.70;4.70;;;;;;;-144.30;25.42;80656.47;5069435;28;20203;-51
2023/07/10 08:14:37;;;;;;;6.10;4.80;;;;;;;-144.30;25.08;80503.59;5069711;28;20202;-49
2023/07/10 08:17:04;;;;;;;5.05;3.78;;;;;;;-144.30;24.79;80370.59;5069740;28;20199;-52
2023/07/10 08:19:31;;;;;;;4.60;4.30;;;;;;;-144.30;24.55;80211.81;5069036;28;20199;-49
2023/07/10 08:21:57;;;;;;;7.28;4.30;;;;;;;-144.30;24.33;80380.53;5069423;28;20203;-51
2023/07/10 08:24:25;;;;;;;5.57;3.72;;;;;;;-144.30;24.49;80354.72;5069921;28;20647;-50
2023/07/10 08:26:51;;;;;;;5.22;4.18;;;;;;;-144.30;24.31;80243.56;5069998;28;20566;-50
2023/07/10 08:29:25;;;;;;;6.50;4.85;;;;;;;-144.30;24.07;80152.25;5070072;28;20195;-49
2023/07/10 08:31:53;;;;;;;3.90;3.45;;;;;;;-144.30;24.35;80448.03;5068904;28;20215;-48
2023/07/10 08:34:21;;;;;;;3.45;3.25;;;;;;;-144.30;24.47;80620.72;5069863;28;20679;-49
2023/07/10 08:36:48;;;;;;;4.53;3.42;;;;;;;-144.30;24.68;80839.13;5069065;28;20723;-49
2023/07/10 08:39:15;;;;;;;4.13;3.60;;;;;;;-144.30;24.93;80710.06;5069535;28;20286;-50
2023/07/10 08:41:43;;;;;;;6.43;3.70;;;;;;;-144.30;24.90;80708.09;5069183;28;20278;-51
2023/07/10 08:44:12;;;;;;;3.72;3.42;;;;;;;-144.30;24.40;80614.78;5069388;28;20192;-51
2023/07/10 08:46:41;;;;;;;5.90;3.45;;;;;;;-144.30;24.24;80636.63;5069261;28;20252;-51
2023/07/10 08:49:16;;;;;;;3.38;3.17;;;;;;;-144.30;24.49;80704.13;5069613;28;20286;-52
2023/07/10 08:51:54;;;;;;;3.45;3.25;;;;;;;-144.30;24.62;80795.44;5069068;28;20225;-48
2023/07/10 08:54:21;;;;;;;5.45;3.38;;;;;;;-144.30;24.83;80870.88;5069830;28;20195;-48
2023/07/10 08:56:56;;;;;;;7.50;3.60;;;;;;;-144.30;25.27;80958.22;5068971;28;20663;-48
2023/07/10 08:59:38;;;;;;;3.40;3.10;;;;;;;-144.30;24.62;80908.59;5069570;28;20646;-49
2023/07/10 09:02:16;;;;;;;3.38;3.25;;;;;;;-144.30;24.86;81071.41;5069482;28;20274;-48
2023/07/10 09:04:45;;;;;;;3.92;3.63;;;;;;;-144.30;25.39;81121.03;5069086;28;20195;-51
2023/07/10 09:07:15;;;;;;;8.05;3.58;;;;;;;-144.30;25.78;81333.50;5069092;28;20685;-50
2023/07/10 09:09:45;;;;;;;3.58;3.28;;;;;;;-144.30;26.09;81371.22;5069323;28;20567;-48
2023/07/10 09:12:18;;;;;;;4.10;3.58;;;;;;;-144.30;25.85;81424.81;5069347;28;20219;-51
2023/07/10 09:14:52;;;;;;;5.13;3.60;;;;;;;-144.30;25.90;81414.91;5069048;28;20195;-52
2023/07/10 09:17:30;;;;;;;7.28;4.55;;;;;;;-144.30;26.25;81341.44;5069282;28;20585;-52
2023/07/10 09:20:00;;;;;;;5.95;4.85;;;;;;;-144.30;26.04;81295.75;5068969;28;20195;-51
2023/07/10 09:22:27;;;;;;;9.98;4.10;;;;;;;-144.30;26.09;81319.59;5068469;28;20278;-50
2023/07/10 09:24:55;;;;;;;6.45;3.55;;;;;;;-144.30;25.88;81291.78;5069144;28;20571;-51
2023/07/10 09:27:22;;;;;;;3.80;3.50;;;;;;;-144.30;25.84;81309.66;5069089;28;20202;-47
2023/07/10 09:29:52;;;;;;;11.45;4.03;;;;;;;-144.30;25.85;81208.41;5069456;28;20209;-49
2023/07/10 09:32:20;;;;;;;5.70;3.97;;;;;;;-144.30;25.61;81299.72;5072761;28;20202;-50
2023/07/10 09:34:53;;;;;;;3.63;3.42;;;;;;;-144.30;25.27;81192.50;5072651;28;20640;-51
2023/07/10 09:37:23;;;;;;;4.63;3.67;;;;;;;-144.30;25.25;81275.91;5072739;28;20203;-51
2023/07/10 09:39:50;;;;;;;4.35;2.95;;;;;;;-144.30;25.17;81379.16;5072464;28;20253;-51
2023/07/10 09:42:19;;;;;;;9.27;4.03;;;;;;;-144.30;24.77;81267.97;5072773;28;20195;-49
2023/07/10 09:44:51;;;;;;;6.15;2.95;;;;;;;-144.30;24.77;81256.06;5072279;28;20198;-51
2023/07/10 09:47:19;;;;;;;3.90;2.83;;;;;;;-144.30;24.81;81214.34;5072470;28;20192;-51
2023/07/10 09:49:50;;;;;;;5.75;3.10;;;;;;;-144.30;25.14;81214.34;5072592;28;20196;-48
2023/07/10 09:52:22;;;;;;;5.50;3.58;;;;;;;-144.30;25.32;81128.97;5072489;28;20226;-52
2023/07/10 09:54:50;;;;;;;3.20;3.00;;;;;;;-144.30;24.61;81127.00;5065968;28;20682;-48
2023/07/10 09:57:19;;;;;;;6.63;3.50;;;;;;;-144.30;25.00;81077.34;5062554;28;20899;-49
2023/07/10 09:59:50;;;;;;;8.15;3.00;;;;;;;-144.30;24.78;81091.25;5052374;28;20188;-50
2023/07/10 10:02:22;;;;;;;3.42;3.17;;;;;;;-144.30;24.37;81077.34;5057051;28;20209;-48
2023/07/10 10:05:01;;;;;;;2.88;2.60;;;;;;;-144.30;24.69;80853.00;5063097;28;20200;-51
2023/07/10 10:07:36;;;;;;;3.33;3.03;;;;;;;-144.30;24.22;81109.13;5072387;28;20187;-51
2023/07/10 10:10:19;;;;;;;3.30;3.10;;;;;;;-144.30;24.71;81281.88;5072112;28;20206;-48
2023/07/10 10:12:49;;;;;;;4.13;3.65;;;;;;;-144.30;25.77;81518.16;5071906;28;20244;-47
2023/07/10 10:15:22;;;;;;;4.93;3.03;;;;;;;-144.30;25.27;81492.34;5072187;28;20287;-49
2023/07/10 10:17:51;;;;;;;7.70;6.93;;;;;;;-144.30;24.96;81410.94;5071759;28;20208;-49
2023/07/10 10:20:26;;;;;;;3.47;3.17;;;;;;;-144.30;25.05;81426.81;5071811;28;20199;-49
2023/07/10 10:22:53;;;;;;;3.22;3.03;;;;;;;-144.30;24.74;81446.66;5071579;28;20199;-50
2023/07/10 10:25:24;;;;;;;3.63;3.45;;;;;;;-144.30;24.89;81506.25;5064061;28;20200;-48
2023/07/10 10:28:04;;;;;;;8.48;5.97;;;;;;;-144.30;24.91;81518.16;5051919;28;20201;-50
2023/07/10 10:30:37;;;;;;;3.25;2.90;;;;;;;-144.30;25.62;81744.53;5060562;28;20204;-51
2023/07/10 10:33:20;;;;;;;3.20;2.90;;;;;;;-144.30;25.95;81690.91;5052811;28;20295;-50
2023/07/10 10:35:57;;;;;;;3.70;3.40;;;;;;;-144.30;25.88;81702.84;5051873;28;20319;-48
2023/07/10 10:38:46;;;;;;;4.00;3.80;;;;;;;-144.30;25.85;81746.53;5051857;28;20597;-49
2023/07/10 10:41:43;;;;;;;4.43;3.40;;;;;;;-144.30;25.83;81758.44;5051360;28;20595;-48
2023/07/10 10:44:20;;;;;;;3.50;3.20;;;;;;;-144.30;25.91;81800.13;5051726;28;20204;-49
2023/07/10 10:47:00;;;;;;;3.55;3.35;;;;;;;-144.30;26.26;81796.16;5051522;28;20198;-48
2023/07/10 10:49:42;;;;;;;5.90;4.50;;;;;;;-144.30;26.06;81883.53;5051401;28;20256;-48
2023/07/10 10:52:21;;;;;;;3.58;3.08;;;;;;;-144.30;26.29;81877.59;5051482;28;20225;-51
2023/07/10 10:55:00;;;;;;;8.05;5.78;;;;;;;-144.30;26.75;81855.75;5051372;28;20231;-49
2023/07/10 10:57:43;;;;;;;5.38;5.03;;;;;;;-144.30;26.63;81885.53;5059353;28;20206;-51
2023/07/10 11:00:22;;;;;;;6.93;6.32;;;;;;;-144.30;26.62;81899.44;5052016;28;20212;-49
2023/07/10 11:03:15;;;;;;;8.07;7.47;;;;;;;-144.30;26.39;81893.47;5057561;28;20203;-52
2023/07/10 11:05:47;;;;;;;3.95;3.10;;;;;;;-144.30;25.92;81849.78;5051808;28;20860;-49
2023/07/10 11:08:22;;;;;;;12.63;11.27;;;;;;;-144.30;26.02;81857.72;5050981;28;20201;-49
2023/07/10 11:10:52;;;;;;;5.50;5.03;;;;;;;-144.30;26.72;81671.06;5050858;28;20230;-49
2023/07/10 11:13:25;;;;;;;3.90;3.60;;;;;;;-144.30;26.46;81762.41;5051240;28;20198;-48
2023/07/10 11:15:52;;;;;;;5.75;4.00;;;;;;;-144.30;26.64;81780.28;5050798;28;20200;-49
2023/07/10 11:18:20;;;;;;;3.65;3.42;;;;;;;-144.30;25.98;81712.75;5051070;28;20300;-51
2023/07/10 11:20:47;;;;;;;4.03;3.83;;;;;;;-144.30;25.93;81708.78;5050706;28;20680;-51
2023/07/10 11:23:36;;;;;;;8.10;3.90;;;;;;;-144.30;25.84;82376.09;5050905;28;20200;-52
2023/07/10 11:26:07;;;;;;;10.75;8.25;;;;;;;-144.30;26.07;81778.28;5050783;28;20197;-51